Time;durP1;ratioP1;P1;durP2;ratioP2;P2;SDS_P1;SDS_P2;PMS_P1;PMS_P2;Temp;Humidity;BMP_temperature;BMP_pressure;BME280_temperature;BME280_humidity;BME280_pressure;Samples;Min_cycle;Max_cycle;Signal;HPM_P1;HPM_P2
2023/05/07 00:00:59;;;;;;;17.55;9.30;;;;;;;10.10;100.00;98567.03;2567680;28;20086;-85
2023/05/07 00:02:15;;;;;;;17.48;9.68;;;;;;;9.97;100.00;98562.09;2567707;28;20457;-84
2023/05/07 00:03:31;;;;;;;16.83;9.30;;;;;;;9.98;100.00;98560.31;2567771;28;20050;-84
2023/05/07 00:04:46;;;;;;;17.05;9.05;;;;;;;9.81;100.00;98565.97;2566994;28;20058;-84
2023/05/07 00:06:02;;;;;;;16.77;9.02;;;;;;;9.80;100.00;98569.47;2567454;28;20066;-84
2023/05/07 00:07:18;;;;;;;17.70;9.90;;;;;;;9.71;100.00;98566.16;2567338;28;20139;-84
2023/05/07 00:08:34;;;;;;;17.35;9.38;;;;;;;9.71;100.00;98571.38;2567842;28;20553;-84
2023/05/07 00:09:49;;;;;;;18.35;10.30;;;;;;;9.84;100.00;98571.13;2567592;28;20059;-84
2023/05/07 00:11:05;;;;;;;17.30;9.60;;;;;;;9.86;100.00;98570.19;2567692;28;20129;-84
2023/05/07 00:12:20;;;;;;;17.77;9.18;;;;;;;9.76;100.00;98568.66;2567791;28;20671;-85
2023/05/07 00:13:36;;;;;;;19.70;10.77;;;;;;;9.68;100.00;98567.97;2567834;28;20066;-85
2023/05/07 00:14:51;;;;;;;18.85;9.90;;;;;;;9.21;100.00;98568.97;2567399;28;20054;-84
2023/05/07 00:16:07;;;;;;;17.27;9.27;;;;;;;9.36;100.00;98569.53;2567556;28;20065;-84
2023/05/07 00:17:23;;;;;;;18.95;10.10;;;;;;;9.17;100.00;98565.53;2566961;28;20118;-84
2023/05/07 00:18:38;;;;;;;15.95;9.05;;;;;;;9.08;100.00;98560.53;2567916;28;20149;-84
2023/05/07 00:19:54;;;;;;;19.20;10.40;;;;;;;9.37;100.00;98561.69;2568023;28;20051;-84
2023/05/07 00:21:10;;;;;;;17.73;9.88;;;;;;;9.47;100.00;98557.94;2567976;28;20062;-84
2023/05/07 00:22:26;;;;;;;15.48;9.73;;;;;;;9.16;100.00;98563.81;2568210;28;20055;-84
2023/05/07 00:23:41;;;;;;;16.75;9.23;;;;;;;9.32;100.00;98555.66;2568006;28;20051;-84
2023/05/07 00:24:58;;;;;;;16.67;9.38;;;;;;;9.23;100.00;98561.09;2567987;28;20058;-84
2023/05/07 00:26:13;;;;;;;18.98;9.70;;;;;;;9.36;100.00;98559.97;2567948;28;20436;-85
2023/05/07 00:27:29;;;;;;;18.00;9.38;;;;;;;9.50;100.00;98566.63;2567836;28;20103;-84
2023/05/07 00:28:44;;;;;;;17.50;9.95;;;;;;;9.52;100.00;98557.00;2568165;28;20065;-84
2023/05/07 00:30:00;;;;;;;16.17;9.60;;;;;;;9.44;100.00;98557.19;2567975;28;20061;-84
2023/05/07 00:31:15;;;;;;;14.93;8.98;;;;;;;9.40;100.00;98565.97;2568088;28;20517;-84
2023/05/07 00:32:31;;;;;;;17.92;9.30;;;;;;;9.31;100.00;98565.28;2567928;28;20062;-84
2023/05/07 00:33:46;;;;;;;18.83;9.45;;;;;;;9.12;100.00;98569.13;2568033;28;20046;-84
2023/05/07 00:35:03;;;;;;;17.38;9.27;;;;;;;9.15;100.00;98575.16;2567751;28;20076;-84
2023/05/07 00:36:19;;;;;;;16.30;8.80;;;;;;;8.88;100.00;98573.97;2567385;28;20141;-84
2023/05/07 00:37:34;;;;;;;20.95;9.80;;;;;;;8.96;100.00;98576.44;2567961;28;20498;-85
2023/05/07 00:38:50;;;;;;;20.25;10.88;;;;;;;9.00;100.00;98578.09;2567999;28;20101;-84
2023/05/07 00:40:08;;;;;;;17.13;8.88;;;;;;;8.97;100.00;98575.53;2567989;28;20074;-84
2023/05/07 00:41:23;;;;;;;18.45;10.40;;;;;;;9.15;100.00;98572.56;2567672;28;20055;-84
2023/05/07 00:42:39;;;;;;;19.20;10.02;;;;;;;9.05;100.00;98568.41;2568017;28;20066;-84
2023/05/07 00:43:54;;;;;;;21.40;10.68;;;;;;;8.90;100.00;98573.03;2567663;28;20486;-84
2023/05/07 00:45:10;;;;;;;25.08;12.07;;;;;;;8.98;100.00;98582.47;2557234;29;20089;-84
2023/05/07 00:46:26;;;;;;;22.33;11.25;;;;;;;9.11;100.00;98578.75;2561687;28;20067;-84
2023/05/07 00:47:41;;;;;;;21.73;10.82;;;;;;;9.08;100.00;98576.19;2567807;28;20058;-84
2023/05/07 00:48:57;;;;;;;21.67;10.57;;;;;;;9.03;100.00;98575.41;2565152;28;20611;-84
2023/05/07 00:50:13;;;;;;;20.33;10.80;;;;;;;9.41;100.00;98573.78;2567656;28;20493;-84
2023/05/07 00:51:29;;;;;;;23.17;10.98;;;;;;;9.47;100.00;98578.84;2567844;28;20055;-84
2023/05/07 00:52:45;;;;;;;20.38;10.63;;;;;;;9.61;100.00;98580.31;2567857;28;20054;-84
2023/05/07 00:54:02;;;;;;;20.00;10.10;;;;;;;9.71;100.00;98578.38;2567483;28;20437;-84
2023/05/07 00:55:18;;;;;;;19.40;10.40;;;;;;;9.92;100.00;98579.66;2567680;28;20350;-85
2023/05/07 00:56:35;;;;;;;23.10;11.32;;;;;;;9.88;100.00;98576.25;2567560;28;20061;-84
2023/05/07 00:57:52;;;;;;;19.05;11.50;;;;;;;9.98;100.00;98579.50;2567502;28;20081;-84
2023/05/07 00:59:07;;;;;;;21.50;11.18;;;;;;;10.07;100.00;98585.41;2567497;28;20560;-84
2023/05/07 01:00:24;;;;;;;19.98;10.48;;;;;;;10.02;100.00;98583.75;2567863;28;20098;-84
2023/05/07 01:01:40;;;;;;;20.27;11.10;;;;;;;9.77;100.00;98579.97;2567746;28;20078;-84
2023/05/07 01:02:56;;;;;;;20.15;10.45;;;;;;;9.89;100.00;98584.94;2567765;28;20058;-84
2023/05/07 01:04:11;;;;;;;19.23;11.00;;;;;;;9.96;100.00;98586.53;2567492;28;20358;-84
2023/05/07 01:05:28;;;;;;;22.83;11.25;;;;;;;10.04;100.00;98581.94;2567747;28;20059;-84
2023/05/07 01:06:45;;;;;;;20.38;10.43;;;;;;;10.08;100.00;98584.53;2567670;28;20082;-85
2023/05/07 01:08:03;;;;;;;19.75;10.73;;;;;;;10.04;100.00;98579.34;2567382;28;20066;-84
2023/05/07 01:09:20;;;;;;;19.95;10.48;;;;;;;10.07;100.00;98582.81;2567828;28;20106;-84
2023/05/07 01:10:36;;;;;;;21.27;11.73;;;;;;;10.24;100.00;98580.63;2567960;28;20050;-83
2023/05/07 01:11:52;;;;;;;19.17;10.65;;;;;;;10.09;100.00;98571.38;2576978;28;20056;-84
2023/05/07 01:13:10;;;;;;;17.80;10.32;;;;;;;10.13;100.00;98575.66;2573167;28;20082;-84
2023/05/07 01:14:25;;;;;;;19.17;11.10;;;;;;;10.32;100.00;98572.59;2567635;28;20058;-84
2023/05/07 01:15:41;;;;;;;17.52;10.25;;;;;;;10.04;100.00;98581.94;2567428;28;20070;-84
2023/05/07 01:16:58;;;;;;;22.17;11.20;;;;;;;10.09;100.00;98581.84;2567643;28;20113;-84
2023/05/07 01:18:15;;;;;;;22.60;11.23;;;;;;;10.18;100.00;98583.38;2567469;28;20058;-85
2023/05/07 01:19:31;;;;;;;17.75;10.82;;;;;;;10.32;100.00;98578.66;2567643;28;20311;-84
2023/05/07 01:20:47;;;;;;;18.98;11.25;;;;;;;10.30;100.00;98577.84;2556845;29;20141;-84
2023/05/07 01:22:08;;;;;;;19.05;11.05;;;;;;;10.18;100.00;98589.50;2561035;28;20055;-84
2023/05/07 01:23:25;;;;;;;22.97;12.10;;;;;;;10.24;100.00;98585.00;2567661;28;20588;-84
2023/05/07 01:24:41;;;;;;;17.63;11.02;;;;;;;10.20;100.00;98578.13;2567871;28;20137;-84
2023/05/07 01:25:56;;;;;;;18.95;10.85;;;;;;;10.16;100.00;98583.44;2567615;28;20078;-84
2023/05/07 01:27:12;;;;;;;18.52;11.15;;;;;;;10.19;100.00;98574.63;2568728;28;20073;-84
2023/05/07 01:28:28;;;;;;;20.17;11.00;;;;;;;10.10;100.00;98580.94;2569566;28;20475;-85
2023/05/07 01:29:43;;;;;;;20.83;11.15;;;;;;;10.16;100.00;98580.81;2569377;28;20057;-84
2023/05/07 01:31:02;;;;;;;20.70;11.02;;;;;;;10.27;100.00;98583.16;2569563;28;20058;-84
2023/05/07 01:32:28;;;;;;;20.88;11.23;;;;;;;10.31;100.00;98583.97;2569831;28;20533;-83
2023/05/07 01:33:45;;;;;;;20.48;10.80;;;;;;;10.35;100.00;98587.38;2569679;28;20061;-83
2023/05/07 01:35:05;;;;;;;20.65;11.00;;;;;;;10.44;100.00;98585.41;2569568;28;20058;-83
2023/05/07 01:36:25;;;;;;;16.67;9.65;;;;;;;10.49;100.00;98579.19;2569470;28;20142;-83
2023/05/07 01:37:41;;;;;;;17.88;10.65;;;;;;;10.50;100.00;98575.66;2569895;28;20114;-84
2023/05/07 01:38:58;;;;;;;17.50;10.48;;;;;;;10.57;100.00;98578.09;2569643;28;20063;-84
2023/05/07 01:40:14;;;;;;;19.15;10.60;;;;;;;10.57;100.00;98575.47;2569705;28;20636;-84
2023/05/07 01:41:30;;;;;;;19.63;11.35;;;;;;;10.39;100.00;98570.69;2569581;28;20059;-84
2023/05/07 01:42:46;;;;;;;20.80;11.05;;;;;;;10.18;100.00;98575.53;2569962;28;20055;-85
2023/05/07 01:44:04;;;;;;;17.13;10.35;;;;;;;10.03;100.00;98576.78;2569429;28;20490;-84
2023/05/07 01:45:19;;;;;;;18.80;10.82;;;;;;;10.27;100.00;98577.94;2569369;28;20543;-84
2023/05/07 01:46:35;;;;;;;20.80;11.50;;;;;;;10.40;100.00;98577.63;2569647;28;20066;-84
2023/05/07 01:47:52;;;;;;;18.98;10.70;;;;;;;10.38;100.00;98572.44;2569709;28;20130;-84
2023/05/07 01:49:08;;;;;;;16.20;9.25;;;;;;;10.31;100.00;98576.13;2569421;28;20156;-84
2023/05/07 01:50:25;;;;;;;20.70;11.25;;;;;;;10.28;100.00;98571.81;2569329;28;20515;-84
2023/05/07 01:51:41;;;;;;;19.85;10.95;;;;;;;10.46;100.00;98572.25;2569581;28;20059;-84
2023/05/07 01:52:57;;;;;;;18.30;10.52;;;;;;;10.49;100.00;98574.81;2569360;28;20066;-84
2023/05/07 01:54:12;;;;;;;19.88;10.77;;;;;;;10.42;100.00;98573.25;2569455;28;20154;-85
2023/05/07 01:55:28;;;;;;;17.52;10.50;;;;;;;10.37;100.00;98570.72;2569326;28;20977;-84
2023/05/07 01:56:43;;;;;;;20.45;11.38;;;;;;;10.44;100.00;98574.06;2569673;28;20086;-84
2023/05/07 01:57:59;;;;;;;20.33;11.07;;;;;;;10.34;100.00;98577.78;2569304;28;20585;-84
2023/05/07 01:59:15;;;;;;;19.65;10.43;;;;;;;10.51;100.00;98583.50;2566733;28;20469;-84
2023/05/07 02:00:31;;;;;;;19.38;11.35;;;;;;;10.67;100.00;98589.19;2569456;28;20065;-84
2023/05/07 02:01:47;;;;;;;23.85;11.02;;;;;;;10.70;100.00;98583.88;2569489;28;20047;-85
2023/05/07 02:03:03;;;;;;;18.98;10.70;;;;;;;10.63;100.00;98589.31;2569131;28;20119;-84
2023/05/07 02:04:18;;;;;;;17.33;10.10;;;;;;;10.72;100.00;98591.69;2569176;28;20074;-83
2023/05/07 02:05:34;;;;;;;17.35;10.13;;;;;;;10.70;100.00;98588.25;2569372;28;20055;-84
2023/05/07 02:06:50;;;;;;;22.17;11.38;;;;;;;10.81;100.00;98588.81;2569775;28;20065;-83
2023/05/07 02:08:05;;;;;;;21.23;10.98;;;;;;;10.94;100.00;98585.88;2569182;28;20059;-83
2023/05/07 02:09:21;;;;;;;17.60;9.73;;;;;;;11.07;100.00;98583.78;2569260;28;20102;-83
2023/05/07 02:10:37;;;;;;;17.83;10.15;;;;;;;11.03;100.00;98585.59;2569351;28;20540;-83
2023/05/07 02:11:53;;;;;;;18.17;10.55;;;;;;;11.01;100.00;98583.06;2578738;28;20051;-83
2023/05/07 02:13:08;;;;;;;20.15;10.02;;;;;;;10.67;100.00;98585.72;2564429;28;20055;-83
2023/05/07 02:14:25;;;;;;;18.02;11.13;;;;;;;10.77;100.00;98589.81;2562814;28;20065;-83
2023/05/07 02:15:41;;;;;;;17.70;9.75;;;;;;;10.55;100.00;98598.22;2569315;28;20054;-83
2023/05/07 02:16:56;;;;;;;17.60;9.70;;;;;;;10.57;100.00;98595.56;2569050;28;20059;-83
2023/05/07 02:18:12;;;;;;;19.67;10.35;;;;;;;10.63;100.00;98597.19;2568970;28;20072;-82
2023/05/07 02:19:27;;;;;;;17.95;10.25;;;;;;;10.73;100.00;98594.28;2569017;28;20055;-83
2023/05/07 02:20:43;;;;;;;16.42;10.38;;;;;;;10.74;100.00;98590.75;2569132;28;20077;-83
2023/05/07 02:21:59;;;;;;;20.95;10.18;;;;;;;10.59;100.00;98586.75;2568864;28;20564;-83
2023/05/07 02:23:14;;;;;;;16.55;9.75;;;;;;;10.53;100.00;98593.91;2568874;28;20109;-83
2023/05/07 02:24:30;;;;;;;18.70;10.35;;;;;;;10.66;100.00;98590.06;2568791;28;20498;-83
2023/05/07 02:25:45;;;;;;;19.52;10.93;;;;;;;10.80;100.00;98591.47;2568965;28;20054;-83
2023/05/07 02:27:02;;;;;;;18.63;11.00;;;;;;;10.74;100.00;98592.50;2568990;28;20066;-83
2023/05/07 02:28:17;;;;;;;17.20;10.05;;;;;;;10.64;100.00;98588.41;2568810;28;20437;-83
2023/05/07 02:29:33;;;;;;;17.55;9.98;;;;;;;10.66;100.00;98592.69;2569025;28;20058;-83
2023/05/07 02:30:49;;;;;;;18.50;10.15;;;;;;;10.76;100.00;98593.34;2569063;28;20055;-83
2023/05/07 02:32:04;;;;;;;19.48;10.30;;;;;;;10.85;100.00;98593.06;2568774;28;20090;-83
2023/05/07 02:33:20;;;;;;;20.25;11.02;;;;;;;10.78;100.00;98591.53;2568924;28;20501;-83
2023/05/07 02:34:36;;;;;;;19.80;10.60;;;;;;;10.82;100.00;98590.53;2557736;29;20459;-83
2023/05/07 02:35:51;;;;;;;18.25;10.32;;;;;;;10.59;100.00;98592.00;2562503;28;20097;-83
2023/05/07 02:37:07;;;;;;;18.48;10.60;;;;;;;10.54;100.00;98590.38;2568609;28;20117;-83
2023/05/07 02:38:23;;;;;;;17.52;10.55;;;;;;;10.58;100.00;98587.66;2568839;28;20501;-82
2023/05/07 02:39:39;;;;;;;17.40;9.55;;;;;;;10.60;100.00;98596.31;2558209;29;20153;-82
2023/05/07 02:40:54;;;;;;;19.13;10.98;;;;;;;10.73;100.00;98591.66;2562299;28;20180;-83
2023/05/07 02:42:10;;;;;;;18.73;10.98;;;;;;;10.77;100.00;98600.28;2568899;28;20159;-83
2023/05/07 02:43:25;;;;;;;17.65;11.00;;;;;;;10.65;100.00;98587.53;2568842;28;20050;-85
2023/05/07 02:44:41;;;;;;;17.60;10.27;;;;;;;10.72;100.00;98596.91;2568581;28;20062;-84
2023/05/07 02:46:03;;;;;;;17.95;10.20;;;;;;;10.72;100.00;98589.94;2568824;28;20055;-84
2023/05/07 02:47:18;;;;;;;19.90;11.07;;;;;;;10.81;100.00;98593.19;2568771;28;20061;-84
2023/05/07 02:48:34;;;;;;;19.70;10.60;;;;;;;10.85;100.00;98597.47;2569374;28;20093;-84
2023/05/07 02:49:50;;;;;;;17.25;10.90;;;;;;;10.81;100.00;98598.44;2568961;28;20047;-84
2023/05/07 02:51:05;;;;;;;17.13;10.23;;;;;;;10.86;100.00;98599.19;2569243;28;20113;-84
2023/05/07 02:52:22;;;;;;;18.42;10.68;;;;;;;10.75;100.00;98596.81;2569053;28;20055;-84
2023/05/07 02:53:37;;;;;;;21.85;11.73;;;;;;;10.63;100.00;98598.03;2558156;29;20055;-84
2023/05/07 02:54:52;;;;;;;21.60;11.02;;;;;;;10.65;100.00;98598.00;2562361;28;20125;-84
2023/05/07 02:56:08;;;;;;;17.65;10.95;;;;;;;10.79;100.00;98598.50;2568947;28;20113;-84
2023/05/07 02:57:24;;;;;;;21.98;11.85;;;;;;;10.75;100.00;98591.59;2568751;28;20062;-84
2023/05/07 02:58:40;;;;;;;21.00;11.07;;;;;;;10.80;100.00;98594.97;2578289;28;20077;-84
2023/05/07 02:59:58;;;;;;;18.50;11.60;;;;;;;10.87;100.00;98595.66;2574293;28;20059;-83
2023/05/07 03:01:13;;;;;;;19.48;10.95;;;;;;;10.93;100.00;98594.66;2568836;28;20062;-84
2023/05/07 03:02:29;;;;;;;18.70;11.02;;;;;;;10.90;100.00;98592.97;2567276;28;20058;-84
2023/05/07 03:03:45;;;;;;;19.25;11.80;;;;;;;10.94;100.00;98594.59;2568042;28;20058;-84
2023/05/07 03:05:00;;;;;;;21.00;11.23;;;;;;;10.78;100.00;98603.75;2568934;28;20113;-84
2023/05/07 03:06:16;;;;;;;17.38;10.57;;;;;;;10.77;100.00;98597.69;2568806;28;20156;-84
2023/05/07 03:07:31;;;;;;;22.52;11.48;;;;;;;10.95;100.00;98598.06;2568960;28;20177;-84
2023/05/07 03:08:47;;;;;;;19.80;10.68;;;;;;;10.98;100.00;98584.88;2568479;28;20061;-83
2023/05/07 03:10:03;;;;;;;18.38;10.65;;;;;;;11.00;100.00;98596.19;2569236;28;20505;-84
2023/05/07 03:11:19;;;;;;;19.38;11.15;;;;;;;10.71;100.00;98584.72;2568636;28;20137;-84
2023/05/07 03:12:35;;;;;;;19.13;10.88;;;;;;;10.74;100.00;98587.25;2569187;28;20051;-84
2023/05/07 03:13:51;;;;;;;21.40;11.85;;;;;;;10.92;100.00;98590.31;2568843;28;20054;-84
2023/05/07 03:15:07;;;;;;;18.55;11.02;;;;;;;11.00;100.00;98585.69;2568642;28;20062;-84
2023/05/07 03:16:23;;;;;;;19.95;11.07;;;;;;;10.85;100.00;98587.00;2568605;28;20145;-84
2023/05/07 03:17:38;;;;;;;18.73;11.00;;;;;;;10.98;100.00;98596.25;2569127;28;20106;-84
2023/05/07 03:18:54;;;;;;;22.58;11.93;;;;;;;11.05;100.00;98586.47;2568517;28;20086;-84
2023/05/07 03:20:10;;;;;;;21.88;10.88;;;;;;;11.04;100.00;98587.34;2568750;28;20058;-84
2023/05/07 03:21:26;;;;;;;19.88;11.48;;;;;;;11.06;100.00;98577.69;2568798;28;20518;-84
2023/05/07 03:22:42;;;;;;;21.27;11.73;;;;;;;10.98;100.00;98588.38;2568479;28;20101;-84
2023/05/07 03:23:57;;;;;;;20.05;11.80;;;;;;;11.08;100.00;98577.63;2568652;28;20070;-84
2023/05/07 03:25:13;;;;;;;16.27;10.43;;;;;;;11.05;100.00;98580.34;2568621;28;20111;-84
2023/05/07 03:26:29;;;;;;;20.17;10.85;;;;;;;11.12;100.00;98580.13;2557915;29;20071;-84
2023/05/07 03:27:45;;;;;;;19.48;11.18;;;;;;;11.10;100.00;98581.94;2562298;28;20063;-84
2023/05/07 03:29:00;;;;;;;17.48;10.82;;;;;;;11.11;100.00;98583.66;2568449;28;20110;-84
2023/05/07 03:30:16;;;;;;;16.92;10.23;;;;;;;11.00;100.00;98593.56;2568631;28;20059;-84
2023/05/07 03:31:32;;;;;;;17.30;10.77;;;;;;;11.04;100.00;98589.09;2568552;28;20059;-84
2023/05/07 03:32:47;;;;;;;18.50;10.85;;;;;;;11.12;100.00;98590.59;2568458;28;20077;-84
2023/05/07 03:34:04;;;;;;;17.55;9.98;;;;;;;11.25;100.00;98585.03;2568522;28;20055;-84
2023/05/07 03:35:20;;;;;;;20.60;11.02;;;;;;;11.06;100.00;98585.56;2568656;28;20050;-84
2023/05/07 03:36:35;;;;;;;20.75;10.98;;;;;;;10.96;100.00;98594.56;2568328;28;20149;-85
2023/05/07 03:37:51;;;;;;;17.80;10.05;;;;;;;10.84;100.00;98593.13;2568455;28;20061;-84
2023/05/07 03:39:06;;;;;;;18.65;9.90;;;;;;;10.57;100.00;98595.56;2577620;28;20219;-84
2023/05/07 03:40:22;;;;;;;19.05;9.98;;;;;;;10.74;100.00;98592.50;2573951;28;20054;-84
2023/05/07 03:41:37;;;;;;;16.85;9.73;;;;;;;10.66;100.00;98597.09;2568661;28;20058;-84
2023/05/07 03:42:53;;;;;;;17.55;10.10;;;;;;;10.94;100.00;98591.13;2568308;28;20085;-84
2023/05/07 03:44:08;;;;;;;18.92;10.63;;;;;;;11.12;100.00;98576.66;2568675;28;20418;-84
2023/05/07 03:45:24;;;;;;;17.63;10.55;;;;;;;11.13;100.00;98576.59;2568341;28;20415;-85
2023/05/07 03:46:40;;;;;;;19.95;11.05;;;;;;;11.14;100.00;98575.69;2568698;28;20528;-84
2023/05/07 03:47:55;;;;;;;21.38;10.15;;;;;;;11.15;100.00;98582.66;2568224;28;20054;-83
2023/05/07 03:49:11;;;;;;;18.27;10.63;;;;;;;11.06;100.00;98587.28;2568294;28;20054;-84
2023/05/07 03:50:27;;;;;;;17.83;11.57;;;;;;;11.21;100.00;98588.66;2567834;28;20082;-84
2023/05/07 03:51:42;;;;;;;16.70;10.32;;;;;;;11.15;100.00;98590.50;2568446;28;20146;-84
2023/05/07 03:52:58;;;;;;;19.48;10.68;;;;;;;11.14;100.00;98587.97;2568232;28;20081;-84
2023/05/07 03:54:13;;;;;;;18.85;11.27;;;;;;;11.14;100.00;98587.97;2568373;28;20166;-84
2023/05/07 03:55:29;;;;;;;21.40;10.80;;;;;;;11.08;100.00;98588.97;2568444;28;20058;-84
2023/05/07 03:56:44;;;;;;;17.10;10.25;;;;;;;10.95;100.00;98593.69;2568447;28;20395;-84
2023/05/07 03:58:00;;;;;;;17.05;10.15;;;;;;;11.00;100.00;98585.69;2568226;28;20063;-84
2023/05/07 03:59:16;;;;;;;17.15;9.98;;;;;;;11.03;100.00;98569.88;2568563;28;20138;-84
2023/05/07 04:00:33;;;;;;;16.45;9.60;;;;;;;11.02;100.00;98587.38;2568274;28;20073;-84
2023/05/07 04:01:49;;;;;;;17.60;9.88;;;;;;;10.84;100.00;98593.13;2568292;28;20586;-84
2023/05/07 04:03:06;;;;;;;17.13;9.75;;;;;;;11.08;100.00;98588.09;2567872;28;20085;-83
2023/05/07 04:04:21;;;;;;;16.45;10.32;;;;;;;11.29;100.00;98589.25;2567914;28;20090;-83
2023/05/07 04:05:37;;;;;;;16.23;9.52;;;;;;;11.25;100.00;98590.25;2567799;28;20567;-84
2023/05/07 04:06:53;;;;;;;20.23;10.23;;;;;;;11.12;100.00;98595.00;2568188;28;20055;-84
2023/05/07 04:08:08;;;;;;;17.05;10.20;;;;;;;11.16;100.00;98592.22;2557456;29;20059;-84
2023/05/07 04:09:24;;;;;;;16.85;9.95;;;;;;;11.16;100.00;98591.38;2561661;28;20074;-84
2023/05/07 04:10:39;;;;;;;17.63;10.40;;;;;;;11.27;100.00;98599.81;2567926;28;20062;-84
2023/05/07 04:11:55;;;;;;;17.80;10.30;;;;;;;11.10;100.00;98597.66;2565412;28;20110;-84
2023/05/07 04:13:10;;;;;;;17.30;10.38;;;;;;;11.35;100.00;98599.59;2568010;28;20058;-84
2023/05/07 04:14:26;;;;;;;15.52;10.23;;;;;;;11.30;100.00;98599.72;2567886;28;20498;-83
2023/05/07 04:15:41;;;;;;;17.58;9.90;;;;;;;11.18;100.00;98596.59;2568132;28;20117;-84
2023/05/07 04:16:59;;;;;;;16.60;9.93;;;;;;;11.09;100.00;98608.16;2567520;28;20059;-84
2023/05/07 04:18:15;;;;;;;18.35;10.52;;;;;;;11.22;100.00;98603.47;2568110;28;20051;-84
2023/05/07 04:19:33;;;;;;;18.05;10.13;;;;;;;11.29;100.00;98598.00;2567708;28;20061;-83
2023/05/07 04:20:49;;;;;;;17.10;10.50;;;;;;;11.36;100.00;98598.69;2567829;28;20137;-84
2023/05/07 04:22:05;;;;;;;17.83;9.93;;;;;;;11.47;100.00;98602.78;2557139;29;20214;-84
2023/05/07 04:23:20;;;;;;;17.33;9.68;;;;;;;11.32;100.00;98598.81;2561881;28;20065;-84
2023/05/07 04:24:36;;;;;;;20.83;11.60;;;;;;;11.37;100.00;98599.53;2567611;28;20070;-84
2023/05/07 04:25:52;;;;;;;18.00;10.55;;;;;;;11.48;100.00;98600.09;2568505;28;20050;-85
2023/05/07 04:27:07;;;;;;;17.30;10.43;;;;;;;11.26;100.00;98597.22;2567848;28;20058;-84
2023/05/07 04:28:23;;;;;;;18.77;10.48;;;;;;;11.38;100.00;98609.97;2567952;28;20085;-84
2023/05/07 04:29:42;;;;;;;17.63;10.40;;;;;;;11.44;100.00;98607.16;2567793;28;20058;-84
2023/05/07 04:30:57;;;;;;;17.15;10.23;;;;;;;11.32;100.00;98615.41;2568207;28;20571;-84
2023/05/07 04:32:13;;;;;;;16.73;10.07;;;;;;;11.28;100.00;98611.13;2567990;28;20074;-84
2023/05/07 04:33:28;;;;;;;16.63;10.50;;;;;;;11.46;100.00;98611.53;2568212;28;20162;-84
2023/05/07 04:34:44;;;;;;;22.35;9.52;;;;;;;11.31;100.00;98613.66;2567751;28;20141;-84
2023/05/07 04:36:04;;;;;;;17.27;9.50;;;;;;;11.30;100.00;98614.56;2567977;28;20086;-84
2023/05/07 04:37:19;;;;;;;19.08;9.70;;;;;;;11.39;100.00;98609.06;2567683;28;20069;-84
2023/05/07 04:38:35;;;;;;;17.35;10.40;;;;;;;11.34;100.00;98610.09;2568531;28;20066;-84
2023/05/07 04:39:51;;;;;;;17.10;9.77;;;;;;;11.46;100.00;98612.38;2567772;28;20059;-84
2023/05/07 04:41:08;;;;;;;18.65;10.75;;;;;;;11.67;100.00;98610.06;2568084;28;20204;-84
2023/05/07 04:42:24;;;;;;;18.33;11.02;;;;;;;11.70;100.00;98609.94;2567938;28;20063;-84
2023/05/07 04:43:41;;;;;;;18.25;10.18;;;;;;;11.71;100.00;98609.03;2557167;29;20083;-83
2023/05/07 04:44:57;;;;;;;15.65;9.65;;;;;;;11.71;100.00;98611.66;2561454;28;20281;-84
2023/05/07 04:46:12;;;;;;;17.02;10.48;;;;;;;11.61;100.00;98611.09;2567641;28;20091;-84
2023/05/07 04:47:28;;;;;;;16.80;9.95;;;;;;;11.51;100.00;98607.00;2567542;28;20070;-84
2023/05/07 04:48:43;;;;;;;18.33;10.27;;;;;;;11.63;100.00;98617.16;2567369;28;20061;-83
2023/05/07 04:49:59;;;;;;;15.07;9.52;;;;;;;11.64;100.00;98618.84;2567647;28;20403;-84
2023/05/07 04:51:15;;;;;;;19.58;10.15;;;;;;;11.61;100.00;98621.56;2567692;28;20081;-84
2023/05/07 04:52:31;;;;;;;17.50;9.70;;;;;;;11.74;100.00;98627.31;2567961;28;20466;-84
2023/05/07 04:53:47;;;;;;;18.23;10.23;;;;;;;11.80;100.00;98623.66;2567326;28;20055;-84
2023/05/07 04:55:03;;;;;;;15.93;9.63;;;;;;;11.83;100.00;98621.78;2567596;28;20974;-84
2023/05/07 04:56:20;;;;;;;17.40;9.65;;;;;;;11.66;100.00;98619.66;2567674;28;20117;-83
2023/05/07 04:57:37;;;;;;;17.00;9.77;;;;;;;11.65;100.00;98617.94;2567548;28;20059;-84
2023/05/07 04:58:53;;;;;;;17.58;10.43;;;;;;;11.73;100.00;98620.34;2567288;28;20129;-83
2023/05/07 05:00:09;;;;;;;15.35;9.52;;;;;;;11.92;100.00;98633.78;2567604;28;20098;-84
2023/05/07 05:01:25;;;;;;;17.02;9.25;;;;;;;11.94;100.00;98633.72;2566951;28;20161;-84
2023/05/07 05:02:40;;;;;;;17.35;10.07;;;;;;;12.01;100.00;98630.00;2567502;28;20082;-83
2023/05/07 05:03:56;;;;;;;15.80;9.40;;;;;;;11.98;100.00;98630.09;2567440;28;20054;-84
2023/05/07 05:05:11;;;;;;;16.65;9.82;;;;;;;11.99;100.00;98630.03;2566567;28;20109;-83
2023/05/07 05:06:29;;;;;;;16.45;9.45;;;;;;;12.06;100.00;98628.13;2566856;28;20566;-83
2023/05/07 05:07:44;;;;;;;16.00;10.18;;;;;;;12.18;100.00;98631.28;2567381;28;20054;-84
2023/05/07 05:09:00;;;;;;;15.73;9.65;;;;;;;12.24;100.00;98631.94;2566937;28;20054;-84
2023/05/07 05:10:16;;;;;;;17.23;9.68;;;;;;;12.18;100.00;98633.88;2567580;28;20097;-84
2023/05/07 05:11:32;;;;;;;16.20;9.63;;;;;;;11.97;100.00;98637.09;2567373;28;20047;-84
2023/05/07 05:12:47;;;;;;;15.70;9.48;;;;;;;11.98;100.00;98640.59;2567268;28;20071;-84
2023/05/07 05:14:03;;;;;;;16.08;9.38;;;;;;;12.06;100.00;98625.50;2567305;28;20062;-84
2023/05/07 05:15:18;;;;;;;19.88;9.98;;;;;;;11.98;100.00;98644.06;2567200;28;20086;-83
2023/05/07 05:16:34;;;;;;;16.35;9.35;;;;;;;12.12;100.00;98643.69;2567303;28;20058;-84
2023/05/07 05:17:50;;;;;;;16.45;9.63;;;;;;;12.13;100.00;98642.78;2567529;28;20119;-84
2023/05/07 05:19:05;;;;;;;14.60;9.00;;;;;;;12.02;100.00;98641.41;2567005;28;20054;-84
2023/05/07 05:20:20;;;;;;;19.50;10.00;;;;;;;12.27;100.00;98638.88;2567061;28;20054;-84
2023/05/07 05:21:36;;;;;;;17.92;10.63;;;;;;;12.39;100.00;98642.84;2567063;28;20109;-84
2023/05/07 05:22:52;;;;;;;15.85;9.75;;;;;;;12.31;100.00;98640.47;2567373;28;20043;-84
2023/05/07 05:24:08;;;;;;;16.58;9.90;;;;;;;12.15;100.00;98634.84;2567353;28;20059;-84
2023/05/07 05:25:23;;;;;;;18.13;8.98;;;;;;;12.31;100.00;98637.84;2566847;28;20086;-84
2023/05/07 05:26:39;;;;;;;16.05;10.07;;;;;;;12.50;100.00;98635.50;2565001;28;20498;-84
2023/05/07 05:27:55;;;;;;;14.63;8.88;;;;;;;12.53;100.00;98632.75;2567490;28;20152;-84
2023/05/07 05:29:10;;;;;;;15.32;8.57;;;;;;;12.65;100.00;98638.50;2567409;28;20051;-83
2023/05/07 05:30:26;;;;;;;16.38;9.00;;;;;;;12.74;100.00;98626.84;2566889;28;20054;-83
2023/05/07 05:31:41;;;;;;;14.50;8.32;;;;;;;12.75;100.00;98632.06;2567449;28;20059;-84
2023/05/07 05:32:57;;;;;;;17.10;9.07;;;;;;;12.77;100.00;98630.22;2567521;28;20113;-83
2023/05/07 05:34:13;;;;;;;14.70;7.95;;;;;;;12.57;100.00;98630.91;2567118;28;20062;-83
2023/05/07 05:35:29;;;;;;;14.70;8.10;;;;;;;12.52;100.00;98624.94;2566925;28;20059;-87
2023/05/07 05:36:45;;;;;;;13.73;8.05;;;;;;;12.44;100.00;98638.34;2567146;28;20134;-84
2023/05/07 05:38:01;;;;;;;16.88;8.55;;;;;;;12.56;100.00;98627.41;2567255;28;20055;-84
2023/05/07 05:39:17;;;;;;;17.83;10.27;;;;;;;12.70;100.00;98631.31;2567404;28;20059;-84
2023/05/07 05:40:33;;;;;;;16.88;8.73;;;;;;;12.83;100.00;98631.78;2567067;28;20545;-83
2023/05/07 05:41:48;;;;;;;18.27;9.38;;;;;;;12.96;100.00;98630.47;2567174;28;20054;-83
2023/05/07 05:43:04;;;;;;;17.40;8.82;;;;;;;12.66;100.00;98634.97;2567303;28;20055;-83
2023/05/07 05:44:19;;;;;;;17.60;9.27;;;;;;;12.39;100.00;98634.97;2567198;28;20059;-83
2023/05/07 05:45:35;;;;;;;15.18;9.02;;;;;;;12.40;100.00;98632.31;2567252;28;20051;-84
2023/05/07 05:46:51;;;;;;;13.00;7.88;;;;;;;12.22;100.00;98639.00;2567574;28;20042;-83
2023/05/07 05:48:08;;;;;;;16.00;8.15;;;;;;;12.43;100.00;98633.97;2567145;28;20055;-83